Time;durP1;ratioP1;P1;durP2;ratioP2;P2;SDS_P1;SDS_P2;PMS_P1;PMS_P2;Temp;Humidity;BMP_temperature;BMP_pressure;BME280_temperature;BME280_humidity;BME280_pressure;Samples;Min_cycle;Max_cycle;Signal;HPM_P1;HPM_P2
2021/10/18 00:01:15;;;;;;;6.22;2.60;;;;;;;9.51;75.30;101563.13;1735198;82;21093;-90
2021/10/18 00:03:42;;;;;;;4.35;2.60;;;;;;;9.50;75.29;101569.23;1735398;82;21540;-91
2021/10/18 00:06:09;;;;;;;7.00;2.90;;;;;;;9.47;75.26;101569.98;1735524;82;21729;-91
2021/10/18 00:08:36;;;;;;;6.15;3.10;;;;;;;9.47;75.32;101569.09;1735363;81;21011;-91
2021/10/18 00:11:02;;;;;;;6.67;3.05;;;;;;;9.45;75.38;101565.08;1735374;82;21116;-91
2021/10/18 00:13:29;;;;;;;6.60;2.67;;;;;;;9.44;75.40;101566.31;1735519;82;21042;-91
2021/10/18 00:15:56;;;;;;;5.90;2.75;;;;;;;9.39;75.28;101562.19;1735535;82;21034;-91
2021/10/18 00:18:22;;;;;;;6.75;2.85;;;;;;;9.30;75.17;101567.05;1735427;81;21224;-91
2021/10/18 00:20:49;;;;;;;7.95;2.75;;;;;;;9.18;75.10;101567.42;1735487;82;21030;-92
2021/10/18 00:23:16;;;;;;;4.72;3.05;;;;;;;9.07;75.19;101563.01;1735505;82;21022;-91
2021/10/18 00:25:42;;;;;;;11.38;3.00;;;;;;;8.96;75.31;101561.63;1735540;82;21595;-91
2021/10/18 00:28:09;;;;;;;8.33;2.58;;;;;;;8.83;75.27;101560.18;1735486;82;21015;-90
2021/10/18 00:30:36;;;;;;;5.15;2.65;;;;;;;8.70;75.35;101567.91;1735579;82;21707;-91
2021/10/18 00:33:02;;;;;;;4.25;2.42;;;;;;;8.60;75.46;101575.31;1735368;82;21479;-90
2021/10/18 00:35:29;;;;;;;5.28;2.45;;;;;;;8.47;75.60;101576.47;1735413;82;21058;-90
2021/10/18 00:37:56;;;;;;;4.35;2.58;;;;;;;8.36;75.71;101578.12;1735352;82;21213;-90
2021/10/18 00:40:22;;;;;;;5.65;2.50;;;;;;;8.26;75.84;101581.53;1735200;82;21121;-90
2021/10/18 00:42:51;;;;;;;6.30;2.60;;;;;;;8.16;75.96;101580.20;1735483;82;22529;-90
2021/10/18 00:45:18;;;;;;;6.87;2.52;;;;;;;8.06;76.08;101579.29;1738509;81;21016;-90
2021/10/18 00:47:45;;;;;;;5.12;2.52;;;;;;;7.98;76.32;101572.37;1746119;82;21034;-91
2021/10/18 00:50:12;;;;;;;4.97;2.50;;;;;;;7.90;76.44;101582.48;1746067;82;21078;-91
2021/10/18 00:52:39;;;;;;;6.67;2.45;;;;;;;7.84;76.54;101582.58;1746168;82;21133;-91
2021/10/18 00:55:07;;;;;;;7.15;2.67;;;;;;;7.77;76.67;101585.29;1745863;82;21788;-91
2021/10/18 00:57:35;;;;;;;6.05;2.50;;;;;;;7.69;76.81;101583.59;1746089;82;21622;-90
2021/10/18 01:00:04;;;;;;;6.40;2.70;;;;;;;7.63;76.93;101583.72;1745956;82;21081;-91
2021/10/18 01:02:31;;;;;;;6.05;2.40;;;;;;;7.57;77.00;101589.55;1745983;82;21034;-91
2021/10/18 01:04:58;;;;;;;6.55;2.77;;;;;;;7.52;77.14;101587.99;1746100;81;21081;-91
2021/10/18 01:07:24;;;;;;;3.70;2.40;;;;;;;7.46;77.30;101592.04;1746206;82;21736;-92
2021/10/18 01:09:51;;;;;;;7.50;2.70;;;;;;;7.41;77.41;101594.41;1745953;82;21038;-92
2021/10/18 01:12:17;;;;;;;4.45;2.50;;;;;;;7.36;77.46;101596.80;1745856;80;21049;-93
2021/10/18 01:14:44;;;;;;;4.60;2.75;;;;;;;7.32;77.57;101603.09;1746013;81;21061;-91
2021/10/18 01:17:11;;;;;;;4.40;2.27;;;;;;;7.29;77.67;101606.89;1746039;82;21014;-92
2021/10/18 01:19:37;;;;;;;8.38;2.75;;;;;;;7.24;77.73;101605.73;1746007;82;21877;-91
2021/10/18 01:22:04;;;;;;;7.12;2.50;;;;;;;7.20;77.78;101604.67;1746136;82;21047;-91
2021/10/18 01:24:32;;;;;;;6.85;3.08;;;;;;;7.15;77.83;101605.76;1746014;82;21058;-91
2021/10/18 01:26:59;;;;;;;5.50;2.40;;;;;;;7.11;77.91;101605.08;1723142;82;21291;-91
2021/10/18 01:29:31;;;;;;;4.87;2.55;;;;;;;7.07;78.02;101616.63;1745913;82;21551;-90
2021/10/18 01:31:57;;;;;;;4.60;2.58;;;;;;;7.03;78.05;101618.61;1746109;82;21742;-90
2021/10/18 01:34:26;;;;;;;3.60;2.27;;;;;;;6.97;78.11;101620.06;1745920;82;21112;-91
2021/10/18 01:36:55;;;;;;;3.65;2.45;;;;;;;6.92;78.14;101617.60;1745943;82;21034;-90
2021/10/18 01:39:22;;;;;;;6.92;2.45;;;;;;;6.89;78.29;101615.23;1746152;82;21110;-91
2021/10/18 01:41:49;;;;;;;4.10;2.60;;;;;;;6.87;78.52;101615.17;1745675;82;21543;-92
2021/10/18 01:44:15;;;;;;;5.08;2.70;;;;;;;6.88;78.60;101616.06;1746082;82;21739;-88
2021/10/18 01:46:42;;;;;;;6.55;2.50;;;;;;;6.88;78.74;101622.61;1745695;82;21030;-92
2021/10/18 01:49:09;;;;;;;6.03;2.42;;;;;;;6.88;78.84;101622.61;1746010;82;21031;-92
2021/10/18 01:51:36;;;;;;;5.70;2.52;;;;;;;6.88;78.98;101623.91;1745580;82;21136;-92
2021/10/18 01:54:03;;;;;;;5.72;2.52;;;;;;;6.88;79.00;101624.80;1745367;81;21500;-92
2021/10/18 01:56:31;;;;;;;5.90;2.37;;;;;;;6.86;79.01;101623.83;1745366;82;21758;-91
2021/10/18 01:59:02;;;;;;;6.12;2.58;;;;;;;6.85;79.08;101624.66;1745544;82;21026;-92
2021/10/18 02:01:28;;;;;;;6.75;2.75;;;;;;;6.84;79.07;101624.57;1745767;81;21050;-92
2021/10/18 02:03:55;;;;;;;4.87;2.50;;;;;;;6.80;79.13;101625.70;1745761;82;21070;-93
2021/10/18 02:06:22;;;;;;;3.55;2.20;;;;;;;6.77;79.16;101623.33;1745573;82;21599;-92
2021/10/18 02:08:49;;;;;;;9.85;2.83;;;;;;;6.75;79.27;101618.42;1745469;82;21850;-91
2021/10/18 02:11:15;;;;;;;7.55;2.95;;;;;;;6.72;79.36;101624.78;1745341;82;21057;-91
2021/10/18 02:13:42;;;;;;;5.97;2.62;;;;;;;6.70;79.37;101623.80;1744963;82;21085;-85
2021/10/18 02:16:08;;;;;;;9.50;3.20;;;;;;;6.67;79.40;101629.78;1744825;81;21042;-85
2021/10/18 02:18:35;;;;;;;5.97;3.00;;;;;;;6.65;79.45;101628.80;1745020;81;21072;-87
2021/10/18 02:21:02;;;;;;;4.42;2.85;;;;;;;6.61;79.48;101629.45;1745515;81;21725;-93
2021/10/18 02:23:29;;;;;;;7.60;3.08;;;;;;;6.57;79.47;101628.38;1745425;82;21616;-87
2021/10/18 02:25:56;;;;;;;8.88;3.42;;;;;;;6.57;79.60;101629.69;1745372;82;21113;-92
2021/10/18 02:28:23;;;;;;;4.62;2.58;;;;;;;6.54;79.68;101631.23;1746078;81;21006;-92
2021/10/18 02:30:50;;;;;;;5.92;2.70;;;;;;;6.52;79.76;101634.17;1746017;82;21037;-92
2021/10/18 02:33:16;;;;;;;4.97;2.72;;;;;;;6.47;79.83;101631.28;1745931;82;21806;-91
2021/10/18 02:35:43;;;;;;;6.62;2.83;;;;;;;6.48;79.89;101642.25;1745895;81;21074;-91
2021/10/18 02:38:10;;;;;;;5.97;2.67;;;;;;;6.45;79.94;101643.37;1745905;82;21029;-91
2021/10/18 02:40:36;;;;;;;5.37;2.70;;;;;;;6.42;80.03;101647.15;1745833;82;21046;-91
2021/10/18 02:43:03;;;;;;;6.87;2.87;;;;;;;6.41;80.10;101647.95;1745142;81;21587;-90
2021/10/18 02:45:30;;;;;;;5.62;2.83;;;;;;;6.41;80.19;101647.95;1746287;80;22637;-85
2021/10/18 02:47:57;;;;;;;8.63;3.42;;;;;;;6.43;80.31;101658.98;1755254;81;21069;-86
2021/10/18 02:50:23;;;;;;;9.90;3.27;;;;;;;6.47;80.51;101660.47;1755045;81;21096;-85
2021/10/18 02:52:50;;;;;;;9.80;3.00;;;;;;;6.53;80.63;101666.03;1755199;81;21166;-85
2021/10/18 02:55:17;;;;;;;5.00;2.72;;;;;;;6.57;80.66;101658.88;1755835;81;21039;-90
2021/10/18 02:57:43;;;;;;;6.58;3.12;;;;;;;6.59;80.69;101666.40;1755628;81;21211;-86
2021/10/18 03:00:11;;;;;;;6.22;2.98;;;;;;;6.65;80.78;101671.08;1755060;81;21303;-85
2021/10/18 03:02:37;;;;;;;5.95;3.10;;;;;;;6.70;80.71;101669.20;1755635;81;21064;-90
2021/10/18 03:05:06;;;;;;;4.90;2.70;;;;;;;6.73;80.61;101678.51;1756536;81;21037;-90
2021/10/18 03:07:32;;;;;;;4.97;2.67;;;;;;;6.70;80.42;101675.75;1756436;81;21917;-89
2021/10/18 03:09:59;;;;;;;5.95;2.42;;;;;;;6.66;80.30;101680.28;1755799;80;21900;-85
2021/10/18 03:12:25;;;;;;;5.22;3.15;;;;;;;6.60;80.24;101682.57;1755226;81;21132;-84
2021/10/18 03:14:52;;;;;;;6.80;3.30;;;;;;;6.56;80.32;101676.68;1755330;80;21096;-84
2021/10/18 03:17:19;;;;;;;4.90;3.10;;;;;;;6.53;80.34;101677.80;1756207;81;21403;-90
2021/10/18 03:19:46;;;;;;;4.47;2.40;;;;;;;6.49;80.40;101682.38;1756380;81;21053;-89
2021/10/18 03:22:13;;;;;;;3.52;2.67;;;;;;;6.45;80.43;101684.33;1756205;81;22541;-90
2021/10/18 03:24:39;;;;;;;4.65;2.80;;;;;;;6.40;80.48;101674.52;1756024;81;21006;-91
2021/10/18 03:27:06;;;;;;;4.60;2.50;;;;;;;6.38;80.56;101676.53;1756331;81;21586;-90
2021/10/18 03:29:32;;;;;;;7.10;2.72;;;;;;;6.35;80.66;101678.58;1755877;81;21171;-91
2021/10/18 03:31:59;;;;;;;5.58;2.98;;;;;;;6.33;80.70;101678.00;1756096;81;21025;-90
2021/10/18 03:34:26;;;;;;;5.35;2.67;;;;;;;6.30;80.78;101680.02;1755547;81;21700;-91
2021/10/18 03:36:52;;;;;;;6.60;3.52;;;;;;;6.26;80.83;101683.69;1755915;81;21069;-92
2021/10/18 03:39:19;;;;;;;7.28;3.17;;;;;;;6.22;80.87;101683.50;1755803;81;21101;-91
2021/10/18 03:41:46;;;;;;;8.03;3.37;;;;;;;6.22;80.95;101689.15;1756273;81;21108;-91
2021/10/18 03:44:12;;;;;;;5.37;3.00;;;;;;;6.12;80.96;101678.58;1756221;81;21088;-87
2021/10/18 03:46:39;;;;;;;6.28;3.80;;;;;;;6.18;81.03;101693.71;1755802;81;21749;-91
2021/10/18 03:49:06;;;;;;;4.80;3.42;;;;;;;6.16;81.12;101694.03;1756823;81;20986;-92
2021/10/18 03:51:32;;;;;;;5.05;3.30;;;;;;;6.15;81.13;101700.95;1756788;81;21609;-91
2021/10/18 03:54:08;;;;;;;5.37;3.30;;;;;;;6.15;81.21;101700.06;1756167;81;21157;-90
2021/10/18 03:56:34;;;;;;;7.85;3.55;;;;;;;6.13;81.20;101706.91;1756189;81;21053;-94
2021/10/18 03:59:01;;;;;;;5.17;3.40;;;;;;;6.10;81.24;101710.27;1756545;81;21733;-94
2021/10/18 04:01:42;;;;;;;4.15;3.02;;;;;;;6.08;81.25;101709.66;1762790;80;21018;-91
2021/10/18 04:04:07;;;;;;;4.85;3.10;;;;;;;6.07;81.27;101711.79;1717421;83;21022;-89
2021/10/18 04:06:34;;;;;;;5.20;3.47;;;;;;;6.06;81.43;101714.78;1720135;83;21559;-82
2021/10/18 04:09:02;;;;;;;9.53;4.58;;;;;;;6.03;81.38;101721.16;1720179;83;21054;-82
2021/10/18 04:11:31;;;;;;;9.15;6.72;;;;;;;6.01;81.37;101730.21;1720260;83;22560;-82
2021/10/18 04:13:58;;;;;;;10.13;4.87;;;;;;;5.99;81.42;101732.25;1720527;83;21061;-86
2021/10/18 04:16:26;;;;;;;5.90;3.62;;;;;;;5.97;81.57;101737.38;1719663;83;21551;-82
2021/10/18 04:19:11;;;;;;;7.62;3.42;;;;;;;5.97;81.66;101736.48;1719525;83;21145;-81
2021/10/18 04:22:16;;;;;;;6.33;3.47;;;;;;;5.97;81.69;101739.10;1706959;83;21053;-88
2021/10/18 04:24:07;;;;;;;5.35;3.55;;;;;;;5.95;81.72;101740.31;1670354;83;21178;-89
2021/10/18 04:26:35;;;;;;;9.65;4.20;;;;;;;5.95;81.72;101738.05;1720512;83;21085;-91
2021/10/18 04:29:09;;;;;;;5.55;3.35;;;;;;;5.94;81.75;101746.30;1720390;83;21082;-93
2021/10/18 04:31:36;;;;;;;;;;;;;;;5.94;81.80;101741.48;1694151;83;21086;-92
2021/10/18 04:34:18;;;;;;;7.78;3.67;;;;;;;5.92;81.85;101740.50;1720432;83;20262;-93
2021/10/18 04:36:44;;;;;;;5.15;3.40;;;;;;;5.90;81.85;101739.09;1714358;83;21627;-89
2021/10/18 04:39:10;;;;;;;7.83;3.33;;;;;;;5.89;81.89;101743.81;1720104;83;21062;-92
2021/10/18 04:41:38;;;;;;;7.72;3.55;;;;;;;5.88;81.98;101745.05;1720526;83;21564;-94
2021/10/18 04:44:06;;;;;;;7.28;3.75;;;;;;;5.85;82.01;101745.33;1721234;83;21077;-92
2021/10/18 04:46:36;;;;;;;8.15;3.90;;;;;;;5.86;82.05;101743.64;1677953;84;21114;-92
2021/10/18 04:49:03;;;;;;;11.57;6.17;;;;;;;5.85;82.10;101749.66;1676958;85;21806;-92
2021/10/18 04:51:31;;;;;;;9.25;4.87;;;;;;;5.85;82.12;101749.66;1676404;84;21199;-95
2021/10/18 04:53:59;;;;;;;3.67;3.12;;;;;;;5.84;82.11;101753.11;1677038;85;21150;-94
2021/10/18 04:56:27;;;;;;;5.55;3.42;;;;;;;5.83;82.15;101757.41;1655206;85;21075;-92
2021/10/18 04:58:54;;;;;;;7.00;3.70;;;;;;;5.83;82.13;101761.73;1676732;85;21111;-88
2021/10/18 05:01:20;;;;;;;7.70;3.52;;;;;;;5.81;82.13;101754.22;1676300;85;21774;-91
2021/10/18 05:03:54;;;;;;;6.20;3.62;;;;;;;5.80;82.20;101758.55;1677211;85;21184;-95
2021/10/18 05:06:20;;;;;;;4.60;3.30;;;;;;;5.80;82.24;101762.84;1678469;85;25700;-95
2021/10/18 05:08:47;;;;;;;5.30;3.80;;;;;;;5.79;82.27;101767.18;1676785;85;21106;-93
2021/10/18 05:11:40;;;;;;;10.03;4.20;;;;;;;5.79;82.30;101762.37;1676938;85;21083;-92
2021/10/18 05:14:07;;;;;;;6.05;3.87;;;;;;;5.78;82.31;101773.23;1602075;88;21790;-89
2021/10/18 05:16:34;;;;;;;5.87;3.72;;;;;;;5.78;82.37;101769.70;1588690;90;21614;-87
2021/10/18 05:19:00;;;;;;;6.22;3.87;;;;;;;5.78;82.39;101776.22;1588859;90;21711;-91
2021/10/18 05:21:27;;;;;;;8.80;4.15;;;;;;;5.78;82.40;101777.16;1589023;90;21093;-92
2021/10/18 05:23:54;;;;;;;8.38;4.97;;;;;;;5.79;82.40;101788.50;1588871;90;21115;-88
2021/10/18 05:26:20;;;;;;;9.40;4.78;;;;;;;5.78;82.44;101786.30;1588793;90;21778;-88
2021/10/18 05:28:47;;;;;;;8.00;4.92;;;;;;;5.78;82.39;101789.28;1588859;90;21157;-90
2021/10/18 05:31:14;;;;;;;8.50;4.12;;;;;;;5.79;82.44;101791.11;1588852;90;21085;-88
2021/10/18 05:33:40;;;;;;;7.83;4.17;;;;;;;5.78;82.41;101800.66;1588704;90;21582;-89
2021/10/18 05:36:07;;;;;;;7.47;4.35;;;;;;;5.80;82.46;101803.34;1588721;90;21693;-87
2021/10/18 05:38:34;;;;;;;10.15;4.20;;;;;;;5.81;82.49;101812.59;1588847;90;21779;-88
2021/10/18 05:41:02;;;;;;;10.18;5.37;;;;;;;5.83;82.51;101810.97;1588855;90;21128;-90
2021/10/18 05:43:29;;;;;;;7.62;4.45;;;;;;;5.87;82.61;101813.78;1568607;90;21077;-90
2021/10/18 05:45:55;;;;;;;10.72;4.62;;;;;;;5.90;82.64;101825.33;1616045;88;21197;-92
2021/10/18 05:48:22;;;;;;;13.15;5.30;;;;;;;5.95;82.72;101833.43;1645669;85;21102;-92
2021/10/18 05:54:49;;;;;;;9.60;4.62;;;;;;;6.10;82.86;101834.42;1720714;83;20995;-92
2021/10/18 05:57:16;;;;;;;6.67;4.15;;;;;;;6.21;82.72;101846.81;1720949;82;21533;-93
2021/10/18 05:59:42;;;;;;;6.40;4.45;;;;;;;6.25;82.62;101850.13;1721184;82;21003;-93
2021/10/18 06:02:18;;;;;;;6.55;4.85;;;;;;;6.27;82.52;101851.50;1721306;82;21473;-94
2021/10/18 06:04:51;;;;;;;7.00;4.33;;;;;;;6.28;82.47;101850.30;1699617;83;21034;-93
2021/10/18 06:07:17;;;;;;;12.98;8.55;;;;;;;6.32;82.45;101852.69;1720692;82;21080;-94
2021/10/18 06:09:45;;;;;;;8.03;4.95;;;;;;;6.36;82.43;101855.98;1720747;82;20972;-93
2021/10/18 06:12:12;;;;;;;6.70;4.70;;;;;;;6.41;82.40;101858.47;1701494;83;21095;-93
2021/10/18 06:14:43;;;;;;;12.35;4.90;;;;;;;6.44;82.34;101854.75;1700809;83;21536;-93
2021/10/18 06:17:11;;;;;;;7.92;4.75;;;;;;;6.48;82.30;101855.83;1699422;83;21591;-90
2021/10/18 06:19:37;;;;;;;9.85;5.03;;;;;;;6.53;82.30;101864.45;1720495;82;21093;-90
2021/10/18 06:22:04;;;;;;;8.25;5.25;;;;;;;6.58;82.28;101871.24;1720611;83;21106;-90
2021/10/18 06:24:31;;;;;;;9.23;5.72;;;;;;;6.61;82.28;101872.75;1720334;82;21055;-89
2021/10/18 06:26:57;;;;;;;7.80;5.20;;;;;;;6.66;82.25;101876.51;1720561;83;21067;-90
2021/10/18 06:29:26;;;;;;;6.40;4.47;;;;;;;6.71;82.25;101879.00;1720543;83;22514;-90
2021/10/18 06:31:53;;;;;;;9.30;4.80;;;;;;;6.77;82.23;101882.38;1720636;83;21113;-94
2021/10/18 06:34:19;;;;;;;11.48;5.30;;;;;;;6.83;82.22;101885.77;1721697;83;21078;-86
2021/10/18 06:36:48;;;;;;;12.75;9.05;;;;;;;6.89;82.17;101884.42;1720615;83;21042;-89
2021/10/18 06:39:20;;;;;;;15.08;11.57;;;;;;;6.95;82.17;101886.48;1721355;83;21071;-93
2021/10/18 06:42:07;;;;;;;8.83;5.15;;;;;;;7.00;82.15;101885.94;1702042;82;21050;-96
2021/10/18 06:44:34;;;;;;;13.08;7.10;;;;;;;7.07;82.04;101880.63;1742229;80;21030;-84
2021/10/18 06:47:01;;;;;;;16.37;9.58;;;;;;;7.13;81.99;101890.55;1750930;80;21168;-84
2021/10/18 06:49:27;;;;;;;12.45;6.83;;;;;;;7.17;81.93;101895.14;1750763;81;21007;-84
2021/10/18 06:51:56;;;;;;;8.60;4.42;;;;;;;7.25;81.93;101894.30;1751000;81;21583;-84
2021/10/18 06:54:23;;;;;;;10.82;4.58;;;;;;;7.30;81.91;101896.37;1750824;81;22583;-85
2021/10/18 06:56:52;;;;;;;6.60;3.98;;;;;;;7.38;81.90;101904.66;1729236;81;21350;-84
2021/10/18 06:59:19;;;;;;;6.22;4.25;;;;;;;7.44;81.84;101915.47;1750663;81;21821;-84
2021/10/18 07:01:46;;;;;;;9.18;4.40;;;;;;;7.50;81.82;101910.56;1750643;81;21107;-84
2021/10/18 07:04:16;;;;;;;8.10;4.42;;;;;;;7.57;81.79;101913.13;1750889;80;21066;-84
2021/10/18 07:06:41;;;;;;;7.05;4.22;;;;;;;7.63;81.74;101908.22;1750463;81;21763;-84
2021/10/18 07:09:07;;;;;;;9.23;4.12;;;;;;;7.73;81.70;101911.86;1750840;80;21565;-84
2021/10/18 07:11:36;;;;;;;10.48;3.92;;;;;;;7.78;81.59;101909.06;1728917;80;21592;-84
2021/10/18 07:14:03;;;;;;;11.05;5.50;;;;;;;7.86;81.54;101918.66;1750867;81;22241;-84
2021/10/18 07:16:29;;;;;;;7.97;4.75;;;;;;;7.92;81.44;101922.02;1750857;81;21022;-84
2021/10/18 07:18:56;;;;;;;11.53;4.72;;;;;;;7.96;81.35;101922.29;1750978;81;21734;-84
2021/10/18 07:21:23;;;;;;;15.18;5.10;;;;;;;8.04;81.31;101919.19;1750844;81;21057;-84
2021/10/18 07:23:55;;;;;;;8.85;4.35;;;;;;;8.10;81.30;101914.27;1750910;80;21064;-85
2021/10/18 07:26:22;;;;;;;14.47;5.15;;;;;;;8.17;81.26;101913.77;1751027;81;21035;-84
2021/10/18 07:28:48;;;;;;;8.58;4.78;;;;;;;8.25;81.18;101914.19;1751168;80;21081;-85
2021/10/18 07:31:15;;;;;;;7.70;5.00;;;;;;;8.33;81.15;101914.16;1751204;80;21694;-85
2021/10/18 07:33:42;;;;;;;6.62;3.90;;;;;;;8.41;81.07;101916.80;1751352;81;21051;-85
2021/10/18 07:36:10;;;;;;;9.73;3.58;;;;;;;8.47;80.96;101914.95;1751348;81;21014;-85
2021/10/18 07:38:37;;;;;;;9.70;3.45;;;;;;;8.53;80.88;101911.31;1750943;80;21666;-85
2021/10/18 07:41:05;;;;;;;9.35;3.67;;;;;;;8.60;80.81;101916.06;1750893;81;21031;-84
2021/10/18 07:43:32;;;;;;;5.78;3.65;;;;;;;8.69;80.75;101920.87;1752861;81;22459;-85
2021/10/18 07:45:59;;;;;;;7.45;3.85;;;;;;;8.75;80.56;101922.09;1755243;81;22186;-85
2021/10/18 07:48:26;;;;;;;4.97;3.65;;;;;;;8.82;80.36;101927.66;1755761;81;21092;-86
2021/10/18 07:50:52;;;;;;;5.45;3.10;;;;;;;8.87;80.31;101928.37;1755796;80;21052;-84
2021/10/18 07:53:19;;;;;;;10.85;3.15;;;;;;;8.94;80.17;101923.92;1755867;80;21487;-84
2021/10/18 07:55:46;;;;;;;7.80;3.40;;;;;;;9.02;80.11;101919.48;1755710;80;21902;-85
2021/10/18 07:58:15;;;;;;;4.37;2.75;;;;;;;9.09;79.96;101925.53;1755597;81;21083;-85
2021/10/18 08:00:42;;;;;;;5.00;2.80;;;;;;;9.15;79.75;101931.97;1755667;80;21049;-85
2021/10/18 08:03:13;;;;;;;9.30;5.00;;;;;;;9.23;79.77;101928.41;1755703;81;21068;-84
2021/10/18 08:05:37;;;;;;;6.97;3.83;;;;;;;9.30;79.60;101938.40;1754489;80;21092;-85
2021/10/18 08:08:05;;;;;;;8.40;3.98;;;;;;;9.38;79.40;101933.94;1755669;80;21723;-85
2021/10/18 08:10:32;;;;;;;12.45;3.80;;;;;;;9.43;79.21;101939.91;1755668;81;21091;-85
2021/10/18 08:12:59;;;;;;;7.65;3.33;;;;;;;9.48;79.05;101930.53;1755840;80;21034;-84
2021/10/18 08:15:28;;;;;;;9.18;3.05;;;;;;;9.56;78.77;101932.63;1755754;80;21073;-84
2021/10/18 08:17:55;;;;;;;5.17;2.90;;;;;;;9.62;78.59;101931.59;1755867;80;21108;-83
2021/10/18 08:20:22;;;;;;;7.58;2.90;;;;;;;9.71;78.31;101928.09;1755717;81;21890;-83
2021/10/18 08:22:49;;;;;;;3.95;2.33;;;;;;;9.77;77.99;101928.80;1755700;80;22243;-84
2021/10/18 08:25:16;;;;;;;4.67;2.55;;;;;;;9.81;77.58;101938.20;1755738;81;21045;-84
2021/10/18 08:27:43;;;;;;;7.55;3.45;;;;;;;9.86;77.34;101936.70;1755816;80;21108;-84
2021/10/18 08:30:11;;;;;;;18.00;7.95;;;;;;;9.91;77.22;101937.83;1703301;83;21088;-84
2021/10/18 08:32:40;;;;;;;6.87;3.67;;;;;;;9.96;77.00;101938.45;1744783;81;22377;-84
2021/10/18 08:35:09;;;;;;;8.43;5.03;;;;;;;9.99;76.85;101943.86;1744608;82;21039;-84
2021/10/18 08:40:22;;;;;;;4.17;2.05;;;;;;;10.10;76.52;101946.58;1744423;81;21377;-84
2021/10/18 08:42:58;;;;;;;5.15;2.75;;;;;;;10.17;76.42;101947.73;1745505;81;21532;-85
2021/10/18 08:45:23;;;;;;;6.62;3.70;;;;;;;10.24;75.90;101948.51;1776892;80;21761;-85
2021/10/18 08:47:50;;;;;;;15.32;2.62;;;;;;;10.28;75.25;101951.76;1777515;80;21444;-85
2021/10/18 08:50:16;;;;;;;15.53;3.02;;;;;;;10.33;75.03;101953.34;1777372;80;21250;-84
2021/10/18 08:52:43;;;;;;;5.42;1.27;;;;;;;10.40;74.82;101961.58;1777387;80;21031;-85
2021/10/18 08:55:10;;;;;;;1.98;1.30;;;;;;;10.45;74.42;101956.08;1777696;80;21047;-85
2021/10/18 08:57:36;;;;;;;5.55;1.15;;;;;;;10.49;73.71;101965.02;1777887;80;21741;-85
2021/10/18 09:00:07;;;;;;;7.62;6.25;;;;;;;10.53;73.33;101966.98;1777719;79;21071;-85
2021/10/18 09:02:36;;;;;;;6.53;2.77;;;;;;;10.56;72.83;101969.73;1777216;80;21067;-85
2021/10/18 09:05:08;;;;;;;3.08;1.95;;;;;;;10.61;72.66;101969.52;1777558;80;21369;-85
2021/10/18 09:07:37;;;;;;;3.33;1.95;;;;;;;10.63;72.31;101963.91;1777317;80;21599;-86
2021/10/18 09:10:11;;;;;;;3.05;1.82;;;;;;;10.63;72.01;101967.86;1766084;81;21796;-85
2021/10/18 09:12:41;;;;;;;2.62;1.55;;;;;;;10.62;71.65;101969.09;1776969;80;21083;-85
2021/10/18 09:15:25;;;;;;;2.40;1.32;;;;;;;10.52;70.18;101969.11;1777501;80;21008;-85
2021/10/18 09:17:57;;;;;;;2.33;1.60;;;;;;;10.44;69.96;101970.09;1776055;80;21072;-86
2021/10/18 09:20:27;;;;;;;2.93;1.20;;;;;;;10.46;69.76;101975.42;1777638;79;21075;-86
2021/10/18 09:23:15;;;;;;;5.08;1.45;;;;;;;10.45;69.42;101977.56;1738616;81;21562;-85
2021/10/18 09:25:42;;;;;;;2.17;1.42;;;;;;;10.45;69.48;101974.92;1745476;82;21048;-85
2021/10/18 09:28:17;;;;;;;2.75;1.40;;;;;;;10.42;68.95;101973.49;1766596;79;21527;-86
2021/10/18 09:30:47;;;;;;;3.25;1.45;;;;;;;10.43;69.03;101976.59;1748361;80;21055;-86
2021/10/18 09:33:21;;;;;;;2.72;1.77;;;;;;;10.50;68.92;101981.30;1777740;79;21533;-85
2021/10/18 09:35:46;;;;;;;1.47;1.25;;;;;;;10.59;68.86;101984.36;1777538;80;22697;-86
2021/10/18 09:38:13;;;;;;;3.12;1.77;;;;;;;10.63;68.33;101991.55;1777564;80;21070;-86
2021/10/18 09:40:40;;;;;;;2.92;1.40;;;;;;;10.64;68.38;101994.69;1777921;80;21083;-85
2021/10/18 09:43:14;;;;;;;4.90;1.95;;;;;;;10.66;68.35;101990.39;1776501;80;21052;-85
2021/10/18 10:51:37;;;;;;;5.55;3.08;;;;;;;11.55;63.69;101954.14;1777443;80;21067;-84
2021/10/18 10:53:58;;;;;;;5.58;2.10;;;;;;;11.56;63.71;101947.63;1764338;80;21108;-85
2021/10/18 10:56:59;;;;;;;4.40;2.00;;;;;;;11.59;63.63;101943.77;1777177;80;21040;-85
2021/10/18 10:59:27;;;;;;;3.40;1.50;;;;;;;11.59;63.59;101941.55;1776312;80;21851;-85
2021/10/18 11:02:11;;;;;;;2.40;1.60;;;;;;;11.62;63.57;101949.17;1766914;81;21124;-86
2021/10/18 11:04:42;;;;;;;3.55;1.80;;;;;;;11.63;63.45;101948.74;1777786;80;21127;-85
2021/10/18 11:07:37;;;;;;;4.75;1.62;;;;;;;11.66;63.39;101961.64;1777229;80;21013;-85
2021/10/18 11:10:07;;;;;;;3.65;1.60;;;;;;;11.66;63.36;101961.64;1777663;79;21262;-84
2021/10/18 11:12:41;;;;;;;2.50;1.32;;;;;;;11.72;62.91;101968.00;1777409;80;22641;-86
2021/10/18 11:15:12;;;;;;;5.28;1.98;;;;;;;11.76;62.72;101965.53;1777821;80;21537;-86
2021/10/18 11:17:48;;;;;;;6.55;2.62;;;;;;;11.81;62.54;101960.45;1777835;80;21517;-86
2021/10/18 11:20:21;;;;;;;5.92;4.37;;;;;;;11.83;62.57;101964.05;1777179;80;21066;-85
2021/10/18 11:22:51;;;;;;;16.45;2.95;;;;;;;11.83;62.60;101966.27;1777861;80;21103;-86
2021/10/18 11:25:24;;;;;;;19.20;4.97;;;;;;;11.83;62.53;101970.65;1777797;80;21756;-86
2021/10/18 11:27:55;;;;;;;4.22;2.17;;;;;;;11.84;62.41;101960.16;1777657;80;21037;-86
2021/10/18 11:30:24;;;;;;;5.85;2.33;;;;;;;11.83;62.29;101967.58;1777067;80;21145;-86
2021/10/18 11:33:01;;;;;;;2.30;1.65;;;;;;;11.82;61.94;101968.83;1777515;80;21302;-86
2021/10/18 11:35:29;;;;;;;3.33;1.55;;;;;;;11.79;62.01;101966.98;1777644;80;21279;-86
2021/10/18 11:38:00;;;;;;;5.90;4.15;;;;;;;11.76;61.92;101977.41;1777538;80;22506;-86
2021/10/18 11:40:36;;;;;;;3.40;1.40;;;;;;;11.71;61.91;101974.99;1777578;79;21111;-86
2021/10/18 11:43:07;;;;;;;3.90;2.17;;;;;;;11.70;62.03;101971.00;1777589;80;21071;-86
2021/10/18 11:45:44;;;;;;;4.03;1.80;;;;;;;11.76;62.06;101980.04;1774881;80;21107;-86
2021/10/18 11:48:20;;;;;;;5.55;1.70;;;;;;;11.88;62.08;101974.38;1774569;80;21118;-86
2021/10/18 11:50:54;;;;;;;3.72;2.10;;;;;;;12.07;62.03;101979.98;1774343;80;21784;-86
2021/10/18 11:53:26;;;;;;;4.92;1.80;;;;;;;12.32;62.01;101982.23;1758507;81;21048;-85
2021/10/18 11:55:59;;;;;;;5.58;2.27;;;;;;;12.57;61.94;101974.34;1758349;81;21065;-86
2021/10/18 11:58:32;;;;;;;4.83;2.05;;;;;;;12.81;61.47;101978.73;1758664;81;21319;-86
2021/10/18 12:01:14;;;;;;;8.40;3.77;;;;;;;12.99;61.25;101978.06;1758019;81;21046;-86
2021/10/18 12:03:44;;;;;;;5.33;2.47;;;;;;;13.16;61.02;101977.31;1758814;80;21682;-84
2021/10/18 12:06:10;;;;;;;8.23;3.85;;;;;;;13.30;60.70;101979.13;1758433;81;21029;-85
2021/10/18 12:08:39;;;;;;;2.60;1.80;;;;;;;13.38;60.44;101982.94;1758678;81;21081;-84
2021/10/18 12:11:08;;;;;;;7.05;1.95;;;;;;;13.45;60.28;101982.70;1758740;81;21030;-85
2021/10/18 12:13:39;;;;;;;3.42;1.55;;;;;;;13.49;59.94;101982.38;1758757;81;21061;-84
2021/10/18 12:16:25;;;;;;;5.85;1.70;;;;;;;13.56;59.82;101978.66;1758657;81;21800;-84
2021/10/18 12:19:01;;;;;;;3.17;2.10;;;;;;;13.64;59.92;101974.94;1758629;81;21054;-85
2021/10/18 12:21:39;;;;;;;2.95;1.60;;;;;;;13.69;59.61;101975.98;1732247;81;21132;-84
2021/10/18 12:24:14;;;;;;;5.28;2.60;;;;;;;13.73;59.51;101972.59;1758854;80;21544;-84
2021/10/18 12:26:47;;;;;;;3.30;2.00;;;;;;;13.76;59.24;101974.02;1758938;81;21029;-84
2021/10/18 12:29:16;;;;;;;3.45;2.33;;;;;;;13.80;59.15;101973.25;1758841;81;21765;-85
2021/10/18 12:31:48;;;;;;;7.55;5.05;;;;;;;13.76;58.46;101970.05;1757867;81;21528;-85
2021/10/18 12:34:28;;;;;;;2.25;1.70;;;;;;;13.64;58.48;101970.97;1758769;81;21077;-85
2021/10/18 12:37:09;;;;;;;6.45;1.57;;;;;;;13.63;58.38;101970.52;1758589;81;21664;-85
2021/10/18 12:40:04;;;;;;;4.25;1.32;;;;;;;13.52;58.24;101968.84;1730730;81;21021;-85
2021/10/18 12:42:34;;;;;;;10.60;2.10;;;;;;;13.46;58.32;101968.64;1731885;81;21792;-85
2021/10/18 12:45:10;;;;;;;4.10;1.40;;;;;;;13.45;58.41;101961.55;1756308;80;21038;-85
2021/10/18 12:47:39;;;;;;;4.00;1.87;;;;;;;13.50;58.37;101953.34;1753883;81;21140;-86
2021/10/18 12:50:15;;;;;;;5.08;1.80;;;;;;;13.53;58.46;101952.13;1753925;81;21049;-86
2021/10/18 12:52:51;;;;;;;6.70;2.05;;;;;;;13.55;57.89;101957.04;1753056;81;21069;-86